Cyprus Cement — C6UP5 — position and weather

sailwx.info

Track history (hours):
 
Tides and Currents Weather Stations Pressure Air Temp Water Temp Dewpoint Dewpoint Depression Visibility Wind Speed Wind Dir Waves Ship Positions

Cyprus Cement

Last reported at 2014-Dec-19 21:16 UTC. Time now 2014-Dec-21 18:02 UTC.
Position N 59°04' E 009°42'.

Length 97 m; draft 7 m.

Type: Cargo ship. MMSI: 311988000.

Date/timePositionNaut miles runAvg speedWind from/ knotsBaromVisibWave heightAir tempDewpointWater temp
2014-Dec-19 21:16N 59°04' E 009°42'7 6.9
2014-Dec-19 20:19N 58°58' E 009°48'2810.1
2014-Dec-19 17:33N 58°32' E 010°08'9 8.7
2014-Dec-19 16:33N 58°24' E 010°15'8 8.4
2014-Dec-19 15:33N 58°16' E 010°22'9 8.7
2014-Dec-19 14:33N 58°08' E 010°28'9 8.9
2014-Dec-19 13:33N 58°00' E 010°35'10 9.7
2014-Dec-19 12:34N 57°51' E 010°42'10 8.3
2014-Dec-19 11:23N 57°42' E 010°36'5 1.1
2014-Dec-19 06:33N 57°38' E 010°43'1111.3
2014-Dec-19 05:32N 57°27' E 010°44'1110.9
2014-Dec-19 04:32N 57°16' E 010°42'11 9.9
2014-Dec-19 03:28N 57°06' E 010°48'53 2.6
2014-Dec-18 07:15N 56°15' E 010°21'2 3.4
2014-Dec-18 06:33N 56°13' E 010°20'85 7.7
2014-Dec-17 19:28N 57°37' E 010°44'1010.6
2014-Dec-17 18:33N 57°47' E 010°42'1312.7
2014-Dec-17 17:33N 57°48' E 010°19'13311.8
2014-Dec-17 06:15N 58°13' E 006°12'912.4
2014-Dec-17 05:33N 58°18' E 005°60'1211.6
2014-Dec-17 04:33N 58°26' E 005°44'1111.1
2014-Dec-17 03:33N 58°35' E 005°31'1111.5
2014-Dec-17 02:33N 58°46' E 005°24'1110.9
2014-Dec-17 01:33N 58°56' E 005°34'1 0.6
2014-Dec-17 00:32N 58°55' E 005°35'0 0.0
2014-Dec-16 23:32N 58°55' E 005°35'0 0.0
2014-Dec-16 22:32N 58°55' E 005°35'0 0.0
2014-Dec-16 21:32N 58°55' E 005°35'0 0.0
2014-Dec-16 20:32N 58°55' E 005°35'0 0.0
2014-Dec-16 19:32N 58°55' E 005°35'0 0.0
2014-Dec-16 18:32N 58°55' E 005°35'0 0.0
2014-Dec-16 17:32N 58°55' E 005°35'0 0.0
2014-Dec-16 16:32N 58°55' E 005°35'0 0.0
2014-Dec-16 15:29N 58°55' E 005°35'0 0.0
2014-Dec-16 14:29N 58°55' E 005°35'0 0.0
2014-Dec-16 13:32N 58°55' E 005°35'0 0.0
2014-Dec-16 12:32N 58°55' E 005°35'0 0.0
2014-Dec-16 11:32N 58°55' E 005°35'0 0.0
2014-Dec-16 10:32N 58°55' E 005°35'0 0.0
2014-Dec-16 09:32N 58°55' E 005°35'0 0.0
2014-Dec-16 08:32N 58°55' E 005°35'0 0.0
2014-Dec-16 07:32N 58°55' E 005°35'0 0.0
2014-Dec-16 06:30N 58°55' E 005°35'1 1.5
2014-Dec-16 05:34N 58°55' E 005°32'9 9.4
2014-Dec-16 04:33N 58°46' E 005°24'11 8.8
2014-Dec-16 03:16N 58°36' E 005°31'6 8.7
2014-Dec-16 02:32N 58°30' E 005°35'8 8.1
2014-Dec-16 01:33N 58°24' E 005°45'9 8.9
2014-Dec-16 00:31N 58°17' E 005°58'9 9.0
2014-Dec-15 23:33N 58°12' E 006°11'72 7.2
2014-Dec-15 13:33N 58°06' E 008°26'9 8.7
2014-Dec-15 12:33N 58°12' E 008°38'  
2014-Dec-13 08:33N 59°04' E 009°42'8 7.9
2014-Dec-13 07:33N 58°57' E 009°48'2611.4
2014-Dec-13 05:19N 58°33' E 010°08'912.0
2014-Dec-13 04:34N 58°25' E 010°15'1211.8
2014-Dec-13 03:34N 58°14' E 010°24'1111.3
2014-Dec-13 02:34N 58°04' E 010°33'1010.4
2014-Dec-13 01:34N 57°54' E 010°41'1111.0
2014-Dec-13 00:32N 57°43' E 010°46'1211.8
2014-Dec-12 23:32N 57°31' E 010°44'2211.1
2014-Dec-12 21:32N 57°09' E 010°46'15510.1
2014-Dec-12 06:11N 54°34' E 010°36'711.9
2014-Dec-12 05:34N 54°31' E 010°24'1010.5
2014-Dec-12 04:34N 54°23' E 010°12'3 2.9
2014-Dec-12 03:34N 54°22' E 010°07'7 6.8
2014-Dec-12 02:34N 54°20' E 009°56'8 7.7
2014-Dec-12 01:33N 54°19' E 009°43'7 5.2
2014-Dec-12 00:14N 54°14' E 009°36'10 5.4
2014-Dec-11 22:29N 54°09' E 009°22'5 5.7
2014-Dec-11 21:34N 54°04' E 009°19'8 8.2
2014-Dec-11 20:33N 53°57' E 009°14'4 4.1
2014-Dec-11 19:33N 53°54' E 009°09'6 5.8
2014-Dec-11 18:34N 53°52' E 009°18'1211.7
2014-Dec-11 17:34N 53°42' E 009°30'10 9.8
2014-Dec-11 16:33N 53°34' E 009°39'9 8.9
2014-Dec-11 15:34N 53°33' E 009°54'4 3.3
2014-Dec-11 14:30N 53°30' E 009°57'0 0.0
2014-Dec-11 13:30N 53°30' E 009°57'0 0.0
2014-Dec-11 12:30N 53°30' E 009°57'0 0.0
2014-Dec-11 11:30N 53°30' E 009°57'0 0.0
2014-Dec-11 10:30N 53°30' E 009°57'0 0.0
2014-Dec-11 09:30N 53°30' E 009°57'0 0.0
2014-Dec-11 08:30N 53°30' E 009°57'0 0.0
2014-Dec-11 07:33N 53°30' E 009°57'0 0.0
2014-Dec-11 06:33N 53°30' E 009°57'0 0.0
2014-Dec-11 05:33N 53°30' E 009°57'0 0.0
2014-Dec-11 04:33N 53°30' E 009°57'0 0.0
2014-Dec-11 03:30N 53°30' E 009°57'0 0.0
2014-Dec-11 02:30N 53°30' E 009°57'0 0.0
2014-Dec-11 01:30N 53°30' E 009°57'0 0.0
2014-Dec-11 00:30N 53°30' E 009°57'0 0.0
2014-Dec-10 23:33N 53°30' E 009°57'0 0.0
2014-Dec-10 22:30N 53°30' E 009°57'0 0.0
2014-Dec-10 21:30N 53°30' E 009°57'0 0.0
2014-Dec-10 20:30N 53°30' E 009°57'0 0.0
2014-Dec-10 19:30N 53°30' E 009°57'0 0.0
2014-Dec-10 18:33N 53°30' E 009°57'0 0.0
2014-Dec-10 17:30N 53°30' E 009°57'0 0.0
2014-Dec-10 16:33N 53°30' E 009°57'0 0.0
2014-Dec-10 15:30N 53°30' E 009°57'0 0.0
2014-Dec-10 14:18N 53°30' E 009°57'0 0.0
2014-Dec-10 13:33N 53°30' E 009°57'0 0.0
2014-Dec-10 12:30N 53°30' E 009°57'0 0.0
2014-Dec-10 11:30N 53°30' E 009°57'0 0.0
2014-Dec-10 10:27N 53°30' E 009°57'0 0.0
2014-Dec-10 09:30N 53°30' E 009°57'0 0.0
2014-Dec-10 08:33N 53°30' E 009°57'0 0.0
2014-Dec-10 07:30N 53°30' E 009°57'0 0.0
2014-Dec-10 06:33N 53°30' E 009°57'0 0.0
2014-Dec-10 05:33N 53°30' E 009°57'0 0.0
2014-Dec-10 04:33N 53°30' E 009°57'0 0.0
2014-Dec-10 03:33N 53°30' E 009°57'0 0.0
2014-Dec-10 02:33N 53°30' E 009°57'0 0.0
2014-Dec-10 01:27N 53°30' E 009°57'0 0.0
2014-Dec-10 00:33N 53°30' E 009°57'0 0.0
2014-Dec-09 23:33N 53°30' E 009°57'0 0.0
2014-Dec-09 22:30N 53°30' E 009°57'0 0.0
2014-Dec-09 21:33N 53°30' E 009°57'  
Track history (hours):
 
Tides and Currents Weather Stations Pressure Air Temp Water Temp Dewpoint Dewpoint Depression Visibility Wind Speed Wind Dir Waves Ship Positions

Cyprus Cement

Last reported at 2014-Dec-19 21:16 UTC. Time now 2014-Dec-21 18:02 UTC.
Position N 59°04' E 009°42'.

Length 97 m; draft 7 m.

Type: Cargo ship. MMSI: 311988000.

Date/timePositionNaut miles runAvg speedWind from/ knotsBaromVisibWave heightAir tempDewpointWater temp
2014-Dec-19 21:16N 59°04' E 009°42'7 6.9
2014-Dec-19 20:19N 58°58' E 009°48'2810.1
2014-Dec-19 17:33N 58°32' E 010°08'9 8.7
2014-Dec-19 16:33N 58°24' E 010°15'8 8.4
2014-Dec-19 15:33N 58°16' E 010°22'9 8.7
2014-Dec-19 14:33N 58°08' E 010°28'9 8.9
2014-Dec-19 13:33N 58°00' E 010°35'10 9.7
2014-Dec-19 12:34N 57°51' E 010°42'10 8.3
2014-Dec-19 11:23N 57°42' E 010°36'5 1.1
2014-Dec-19 06:33N 57°38' E 010°43'1111.3
2014-Dec-19 05:32N 57°27' E 010°44'1110.9
2014-Dec-19 04:32N 57°16' E 010°42'11 9.9
2014-Dec-19 03:28N 57°06' E 010°48'53 2.6
2014-Dec-18 07:15N 56°15' E 010°21'2 3.4
2014-Dec-18 06:33N 56°13' E 010°20'85 7.7
2014-Dec-17 19:28N 57°37' E 010°44'1010.6
2014-Dec-17 18:33N 57°47' E 010°42'1312.7
2014-Dec-17 17:33N 57°48' E 010°19'13311.8
2014-Dec-17 06:15N 58°13' E 006°12'912.4
2014-Dec-17 05:33N 58°18' E 005°60'1211.6
2014-Dec-17 04:33N 58°26' E 005°44'1111.1
2014-Dec-17 03:33N 58°35' E 005°31'1111.5
2014-Dec-17 02:33N 58°46' E 005°24'1110.9
2014-Dec-17 01:33N 58°56' E 005°34'1 0.6
2014-Dec-17 00:32N 58°55' E 005°35'0 0.0
2014-Dec-16 23:32N 58°55' E 005°35'0 0.0
2014-Dec-16 22:32N 58°55' E 005°35'0 0.0
2014-Dec-16 21:32N 58°55' E 005°35'0 0.0
2014-Dec-16 20:32N 58°55' E 005°35'0 0.0
2014-Dec-16 19:32N 58°55' E 005°35'0 0.0
2014-Dec-16 18:32N 58°55' E 005°35'0 0.0
2014-Dec-16 17:32N 58°55' E 005°35'0 0.0
2014-Dec-16 16:32N 58°55' E 005°35'0 0.0
2014-Dec-16 15:29N 58°55' E 005°35'0 0.0
2014-Dec-16 14:29N 58°55' E 005°35'0 0.0
2014-Dec-16 13:32N 58°55' E 005°35'0 0.0
2014-Dec-16 12:32N 58°55' E 005°35'0 0.0
2014-Dec-16 11:32N 58°55' E 005°35'0 0.0
2014-Dec-16 10:32N 58°55' E 005°35'0 0.0
2014-Dec-16 09:32N 58°55' E 005°35'0 0.0
2014-Dec-16 08:32N 58°55' E 005°35'0 0.0
2014-Dec-16 07:32N 58°55' E 005°35'0 0.0
2014-Dec-16 06:30N 58°55' E 005°35'1 1.5
2014-Dec-16 05:34N 58°55' E 005°32'9 9.4
2014-Dec-16 04:33N 58°46' E 005°24'11 8.8
2014-Dec-16 03:16N 58°36' E 005°31'6 8.7
2014-Dec-16 02:32N 58°30' E 005°35'8 8.1
2014-Dec-16 01:33N 58°24' E 005°45'9 8.9
2014-Dec-16 00:31N 58°17' E 005°58'9 9.0
2014-Dec-15 23:33N 58°12' E 006°11'72 7.2
2014-Dec-15 13:33N 58°06' E 008°26'9 8.7
2014-Dec-15 12:33N 58°12' E 008°38'  
2014-Dec-13 08:33N 59°04' E 009°42'8 7.9
2014-Dec-13 07:33N 58°57' E 009°48'2611.4
2014-Dec-13 05:19N 58°33' E 010°08'912.0
2014-Dec-13 04:34N 58°25' E 010°15'1211.8
2014-Dec-13 03:34N 58°14' E 010°24'1111.3
2014-Dec-13 02:34N 58°04' E 010°33'1010.4
2014-Dec-13 01:34N 57°54' E 010°41'1111.0
2014-Dec-13 00:32N 57°43' E 010°46'1211.8
2014-Dec-12 23:32N 57°31' E 010°44'2211.1
2014-Dec-12 21:32N 57°09' E 010°46'15510.1
2014-Dec-12 06:11N 54°34' E 010°36'711.9
2014-Dec-12 05:34N 54°31' E 010°24'1010.5
2014-Dec-12 04:34N 54°23' E 010°12'3 2.9
2014-Dec-12 03:34N 54°22' E 010°07'7 6.8
2014-Dec-12 02:34N 54°20' E 009°56'8 7.7
2014-Dec-12 01:33N 54°19' E 009°43'7 5.2
2014-Dec-12 00:14N 54°14' E 009°36'10 5.4
2014-Dec-11 22:29N 54°09' E 009°22'5 5.7
2014-Dec-11 21:34N 54°04' E 009°19'8 8.2
2014-Dec-11 20:33N 53°57' E 009°14'4 4.1
2014-Dec-11 19:33N 53°54' E 009°09'6 5.8
2014-Dec-11 18:34N 53°52' E 009°18'1211.7
2014-Dec-11 17:34N 53°42' E 009°30'10 9.8
2014-Dec-11 16:33N 53°34' E 009°39'9 8.9
2014-Dec-11 15:34N 53°33' E 009°54'4 3.3
2014-Dec-11 14:30N 53°30' E 009°57'0 0.0
2014-Dec-11 13:30N 53°30' E 009°57'0 0.0
2014-Dec-11 12:30N 53°30' E 009°57'0 0.0
2014-Dec-11 11:30N 53°30' E 009°57'0 0.0
2014-Dec-11 10:30N 53°30' E 009°57'0 0.0
2014-Dec-11 09:30N 53°30' E 009°57'0 0.0
2014-Dec-11 08:30N 53°30' E 009°57'0 0.0
2014-Dec-11 07:33N 53°30' E 009°57'0 0.0
2014-Dec-11 06:33N 53°30' E 009°57'0 0.0
2014-Dec-11 05:33N 53°30' E 009°57'0 0.0
2014-Dec-11 04:33N 53°30' E 009°57'0 0.0
2014-Dec-11 03:30N 53°30' E 009°57'0 0.0
2014-Dec-11 02:30N 53°30' E 009°57'0 0.0
2014-Dec-11 01:30N 53°30' E 009°57'0 0.0
2014-Dec-11 00:30N 53°30' E 009°57'0 0.0
2014-Dec-10 23:33N 53°30' E 009°57'0 0.0
2014-Dec-10 22:30N 53°30' E 009°57'0 0.0
2014-Dec-10 21:30N 53°30' E 009°57'0 0.0
2014-Dec-10 20:30N 53°30' E 009°57'0 0.0
2014-Dec-10 19:30N 53°30' E 009°57'0 0.0
2014-Dec-10 18:33N 53°30' E 009°57'0 0.0
2014-Dec-10 17:30N 53°30' E 009°57'0 0.0
2014-Dec-10 16:33N 53°30' E 009°57'0 0.0
2014-Dec-10 15:30N 53°30' E 009°57'0 0.0
2014-Dec-10 14:18N 53°30' E 009°57'0 0.0
2014-Dec-10 13:33N 53°30' E 009°57'0 0.0
2014-Dec-10 12:30N 53°30' E 009°57'0 0.0
2014-Dec-10 11:30N 53°30' E 009°57'0 0.0
2014-Dec-10 10:27N 53°30' E 009°57'0 0.0
2014-Dec-10 09:30N 53°30' E 009°57'0 0.0
2014-Dec-10 08:33N 53°30' E 009°57'0 0.0
2014-Dec-10 07:30N 53°30' E 009°57'0 0.0
2014-Dec-10 06:33N 53°30' E 009°57'0 0.0
2014-Dec-10 05:33N 53°30' E 009°57'0 0.0
2014-Dec-10 04:33N 53°30' E 009°57'0 0.0
2014-Dec-10 03:33N 53°30' E 009°57'0 0.0
2014-Dec-10 02:33N 53°30' E 009°57'0 0.0
2014-Dec-10 01:27N 53°30' E 009°57'0 0.0
2014-Dec-10 00:33N 53°30' E 009°57'0 0.0
2014-Dec-09 23:33N 53°30' E 009°57'0 0.0
2014-Dec-09 22:30N 53°30' E 009°57'0 0.0
2014-Dec-09 21:33N 53°30' E 009°57'  

Dump ship's entire track history